This is the latest recevied weather packets stored in our database for station/object 5B4ALR-13. If no packets are shown the sender has not sent any weather packets the latest 10 day(s).
| Time | Temp. | Humidity | Pressure | Rain* | Wind** | Luminosity | Snow |
|---|---|---|---|---|---|---|---|
| 1777894266 | 19.44° C | 54% | 1009.5 hPa | 0 mm | - | - | - |
| 1777893666 | 18.89° C | 56% | 1009.5 hPa | 0 mm | - | - | - |
| 1777893072 | 18.89° C | 57% | 1009.4 hPa | 0 mm | - | - | - |
| 1777892468 | 20° C | 55% | 1009.4 hPa | 0 mm | - | - | - |
| 1777891886 | 20.56° C | 52% | 1009.2 hPa | 0 mm | - | - | - |
| 1777891266 | 20.56° C | 54% | 1009.2 hPa | 0 mm | - | - | - |
| 1777890672 | 18.89° C | 59% | 1009.3 hPa | 0 mm | - | - | - |
| 1777890066 | 17.78° C | 61% | 1009.3 hPa | 0 mm | - | - | - |
| 1777889466 | 17.22° C | 62% | 1009.5 hPa | 0.25 mm | - | - | - |
| 1777888866 | 17.22° C | 60% | 1009.5 hPa | 0.25 mm | - | - | - |
| 1777888266 | 17.22° C | 60% | 1009.4 hPa | 0.25 mm | - | - | - |
| 1777887666 | 17.78° C | 61% | 1009.1 hPa | 0.25 mm | - | - | - |
| 1777887074 | 18.89° C | 55% | 1009.2 hPa | 0.25 mm | - | - | - |
| 1777886462 | 19.44° C | 54% | 1008.8 hPa | 0.25 mm | - | - | - |
| 1777885868 | 20° C | 50% | 1008.6 hPa | 0 mm | - | - | - |
| 1777885266 | 20° C | 52% | 1008.4 hPa | 0 mm | - | - | - |
| 1777884666 | 20° C | 53% | 1008.5 hPa | 0.76 mm | - | - | - |
| 1777884065 | 20.56° C | 52% | 1008.4 hPa | 1.27 mm | - | - | - |
| 1777883465 | 20.56° C | 55% | 1008.5 hPa | 1.27 mm | - | - | - |
| 1777882865 | 19.44° C | 61% | 1008.4 hPa | 1.27 mm | - | - | - |
| 1777882265 | 18.33° C | 66% | 1008.2 hPa | 1.27 mm | - | - | - |
| 1777881665 | 17.78° C | 74% | 1008.3 hPa | 1.27 mm | - | - | - |
| 1777881066 | 18.33° C | 63% | 1008.4 hPa | 1.27 mm | - | - | - |
| 1777880465 | 18.89° C | 61% | 1008.2 hPa | 0 mm | - | - | - |
| 1777879865 | 17.78° C | 67% | 1008.2 hPa | 0 mm | - | - | - |
* Rain latest hour (hover to see other rain measurements)
** Current wind speed in m/s (hover to see current wind gust speed)